Garfield Heights, Ohio
Current Conditions -  °F | °C
As of 6:53 AM on Monday 20 Oct 2014 (Local Time) from KBKL Reporting Station
Scattered Clouds Scattered Clouds  
Wind Chill: 44°   Ceiling: Unl
Heat Index: 49°   Visibility: 10mi
Dew Point: 38°   Wind: 13mph
Humidity: 66%   Direction: 190°S
Pressure: 29.93"   Gusts: NA
Location:  41.42°N, 81.6°W
Report Text: KBKL 201053Z AUTO 19011KT 10SM SCT080 09/03 A2993 RMK AO2 SLP138 T00940033
Loading
Personal Weather Stations






























Interactive Weather Map
Tropical Storm Tracking
New forecast layout! Learn more

10-Day Weather Forecast

Advertisements
Track Severe Weather on mobile